createdAt,value
2019-03-16T00:04:08.807Z,2.00
2019-03-16T00:09:10.979Z,2.10
2019-03-16T00:14:13.223Z,2.10
2019-03-16T00:19:15.493Z,2.02
2019-03-16T00:24:17.742Z,2.10
2019-03-16T00:29:19.951Z,1.90
2019-03-16T00:34:22.243Z,2.10
2019-03-16T00:39:24.442Z,2.20
2019-03-16T00:44:26.639Z,1.80
2019-03-16T00:49:28.806Z,2.10
2019-03-16T00:54:30.999Z,1.80
2019-03-16T00:59:33.290Z,2.10
2019-03-16T01:04:35.515Z,1.80
2019-03-16T01:09:37.688Z,1.50
2019-03-16T01:14:40.213Z,1.47
2019-03-16T01:19:42.404Z,1.50
2019-03-16T01:24:44.635Z,1.80
2019-03-16T01:29:46.809Z,1.50
2019-03-16T01:34:48.982Z,1.70
2019-03-16T01:39:51.230Z,1.60
2019-03-16T01:44:53.472Z,1.43
2019-03-16T01:49:55.730Z,1.60
2019-03-16T01:54:57.913Z,1.57
2019-03-16T02:00:00.451Z,1.50
2019-03-16T02:05:02.980Z,1.60
2019-03-16T02:10:05.833Z,1.47
2019-03-16T02:15:08.270Z,1.20
2019-03-16T02:20:10.460Z,1.53
2019-03-16T02:25:12.762Z,1.60
2019-03-16T02:30:15.114Z,1.43
2019-03-16T02:35:17.412Z,1.47
2019-03-16T02:40:19.605Z,1.40
2019-03-16T02:45:21.771Z,1.30
2019-03-16T02:50:24.004Z,1.80
2019-03-16T02:55:26.190Z,1.77
2019-03-16T03:00:28.347Z,1.67
2019-03-16T03:05:30.537Z,1.60
2019-03-16T03:10:32.731Z,2.00
2019-03-16T03:15:34.885Z,1.90
2019-03-16T03:20:37.244Z,1.98
2019-03-16T03:25:39.416Z,2.03
2019-03-16T03:30:41.861Z,2.07
2019-03-16T03:35:44.049Z,1.97
2019-03-16T03:40:46.250Z,2.20
2019-03-16T03:45:48.413Z,2.07
2019-03-16T03:50:50.590Z,2.00
2019-03-16T03:55:52.755Z,2.20
2019-03-16T04:00:55.011Z,2.30
2019-03-16T04:05:57.201Z,2.30
2019-03-16T04:10:59.574Z,2.30
2019-03-16T04:16:01.773Z,2.50
2019-03-16T04:21:03.961Z,2.30
2019-03-16T04:26:06.199Z,2.33
2019-03-16T04:31:08.357Z,2.30
2019-03-16T04:36:10.532Z,2.43
2019-03-16T04:41:12.698Z,2.70
2019-03-16T04:46:14.909Z,2.60
2019-03-16T04:51:17.171Z,3.45
2019-03-16T04:56:19.318Z,3.53
2019-03-16T05:01:21.507Z,2.90
2019-03-16T05:06:23.675Z,3.30
2019-03-16T05:11:25.845Z,3.40
2019-03-16T05:16:28.433Z,3.70
2019-03-16T05:21:30.632Z,3.67
2019-03-16T05:26:32.820Z,3.90
2019-03-16T05:31:35.018Z,4.30
2019-03-16T05:36:37.211Z,4.07
2019-03-16T05:41:39.383Z,3.63
2019-03-16T05:46:41.588Z,3.43
2019-03-16T05:51:44.474Z,4.03
2019-03-16T05:56:46.660Z,3.60
2019-03-16T06:01:48.878Z,3.63
2019-03-16T06:06:51.130Z,3.43
2019-03-16T06:11:53.341Z,3.83
2019-03-16T06:16:55.505Z,3.30
2019-03-16T06:21:57.716Z,3.13
2019-03-16T06:26:59.960Z,3.20
2019-03-16T06:32:02.318Z,4.37
2019-03-16T06:37:04.562Z,3.60
2019-03-16T06:42:06.762Z,3.50
2019-03-16T06:47:08.946Z,3.23
2019-03-16T06:52:11.158Z,2.73
2019-03-16T06:57:13.362Z,3.73
2019-03-16T07:02:15.541Z,3.30
2019-03-16T07:07:17.722Z,3.17
2019-03-16T07:12:19.940Z,3.80
2019-03-16T07:17:22.602Z,3.43
2019-03-16T07:22:24.834Z,3.70
2019-03-16T07:27:27.046Z,3.70
2019-03-16T07:32:29.220Z,3.00
2019-03-16T07:37:31.420Z,3.25
2019-03-16T07:42:33.654Z,3.40
2019-03-16T07:47:35.818Z,3.17
2019-03-16T07:52:38.018Z,2.40
2019-03-16T07:57:40.956Z,3.40
2019-03-16T08:02:43.462Z,3.67
2019-03-16T08:07:46.259Z,3.87
2019-03-16T08:12:48.426Z,3.60
2019-03-16T08:17:51.298Z,3.33
2019-03-16T08:22:53.551Z,2.87
2019-03-16T08:27:55.806Z,3.10
2019-03-16T08:32:58.028Z,2.60
2019-03-16T08:38:00.205Z,2.58
2019-03-16T08:43:02.587Z,1.83
2019-03-16T08:48:04.769Z,2.62
2019-03-16T08:53:06.978Z,2.30
2019-03-16T08:58:09.208Z,2.20
2019-03-16T09:03:11.497Z,2.20
2019-03-16T09:08:13.681Z,2.30
2019-03-16T09:13:16.111Z,1.97
2019-03-16T09:18:18.321Z,2.37
2019-03-16T09:23:20.536Z,2.70
2019-03-16T09:28:22.922Z,2.10
2019-03-16T09:33:25.279Z,2.00
2019-03-16T09:38:27.712Z,1.90
2019-03-16T09:43:29.973Z,1.23
2019-03-16T09:48:32.219Z,1.53
2019-03-16T09:53:34.421Z,1.53
2019-03-16T09:58:36.635Z,1.30
2019-03-16T10:03:38.838Z,1.57
2019-03-16T10:08:41.042Z,1.70
2019-03-16T10:13:43.238Z,2.50
2019-03-16T10:18:45.440Z,2.23
2019-03-16T10:23:54.342Z,2.13
2019-03-16T10:29:00.065Z,1.80
2019-03-16T10:34:02.451Z,1.70
2019-03-16T10:39:08.626Z,1.40
2019-03-16T10:44:11.285Z,1.50
2019-03-16T10:49:13.681Z,1.73
2019-03-16T10:54:16.016Z,1.40
2019-03-16T10:59:18.868Z,1.20
2019-03-16T11:04:21.059Z,1.30
2019-03-16T11:09:23.247Z,1.07
2019-03-16T11:14:25.465Z,0.90
2019-03-16T11:19:27.689Z,0.97
2019-03-16T11:24:30.192Z,1.10
2019-03-16T11:29:32.698Z,0.97
2019-03-16T11:34:35.192Z,1.00
2019-03-16T11:39:37.448Z,1.60
2019-03-16T11:44:39.627Z,2.10
2019-03-16T11:49:41.880Z,1.10
2019-03-16T11:54:44.047Z,1.20
2019-03-16T11:59:46.225Z,0.77
2019-03-16T12:04:48.449Z,1.00
2019-03-16T12:09:50.667Z,1.37
2019-03-16T12:14:52.909Z,0.90
2019-03-16T12:19:55.653Z,1.20
2019-03-16T12:24:58.039Z,0.93
2019-03-16T12:30:00.397Z,0.80
2019-03-16T12:35:03.033Z,0.48
2019-03-16T12:40:12.121Z,0.40
2019-03-16T12:45:20.225Z,0.80
2019-03-16T12:50:21.728Z,0.70
2019-03-16T12:55:24.205Z,0.47
2019-03-16T13:00:26.426Z,0.40
2019-03-16T13:05:28.687Z,0.70
2019-03-16T13:10:31.023Z,0.47
2019-03-16T13:15:33.250Z,0.70
2019-03-16T13:20:35.486Z,0.57
2019-03-16T13:25:37.754Z,0.40
2019-03-16T13:30:40.011Z,0.80
2019-03-16T13:35:42.250Z,0.60
2019-03-16T13:40:44.412Z,0.70
2019-03-16T13:45:47.141Z,0.50
2019-03-16T13:50:49.439Z,0.47
2019-03-16T13:55:51.699Z,0.73
2019-03-16T14:00:53.927Z,0.90
2019-03-16T14:05:56.142Z,0.70
2019-03-16T14:10:58.357Z,0.70
2019-03-16T14:16:00.937Z,0.90
2019-03-16T14:21:03.148Z,0.50
2019-03-16T14:26:05.709Z,0.50
2019-03-16T14:31:07.935Z,0.60
2019-03-16T14:36:10.244Z,0.67
2019-03-16T14:41:12.842Z,0.60
2019-03-16T14:46:15.131Z,0.70
2019-03-16T14:51:17.397Z,0.70
2019-03-16T14:56:19.652Z,0.80
2019-03-16T15:01:21.827Z,0.70
2019-03-16T15:06:24.050Z,0.93
2019-03-16T15:11:26.262Z,0.63
2019-03-16T15:16:28.500Z,0.83
2019-03-16T15:21:30.807Z,1.17
2019-03-16T15:26:33.052Z,0.90
2019-03-16T15:31:35.265Z,1.13
2019-03-16T15:36:37.498Z,1.00
2019-03-16T15:41:39.762Z,1.23
2019-03-16T15:46:41.950Z,1.30
2019-03-16T15:51:44.208Z,1.10
2019-03-16T15:56:46.425Z,2.30
2019-03-16T16:01:48.641Z,1.00
2019-03-16T16:06:50.832Z,1.40
2019-03-16T16:11:53.087Z,1.17
2019-03-16T16:16:55.286Z,1.03
2019-03-16T16:21:57.606Z,1.20
2019-03-16T16:26:59.791Z,1.63
2019-03-16T16:32:01.996Z,1.50
2019-03-16T16:37:04.198Z,1.50
2019-03-16T16:42:06.396Z,2.47
2019-03-16T16:47:08.597Z,2.47
2019-03-16T16:52:11.269Z,1.10
2019-03-16T16:57:13.440Z,1.10
2019-03-16T17:02:15.644Z,1.55
2019-03-16T17:07:17.974Z,1.20
2019-03-16T17:12:20.226Z,1.70
2019-03-16T17:17:34.378Z,1.50
2019-03-16T17:22:26.301Z,1.00
2019-03-16T17:27:28.632Z,1.23
2019-03-16T17:32:30.842Z,1.40
2019-03-16T17:37:33.154Z,2.43
2019-03-16T17:42:35.512Z,3.73
2019-03-16T17:47:37.855Z,2.90
2019-03-16T17:52:40.091Z,2.13
2019-03-16T17:57:45.049Z,2.10
2019-03-16T18:02:51.792Z,2.30
2019-03-16T18:07:50.364Z,2.37
2019-03-16T18:12:52.699Z,2.07
2019-03-16T18:17:54.967Z,2.30
2019-03-16T18:22:57.246Z,1.60
2019-03-16T18:27:59.630Z,2.17
2019-03-16T18:33:02.143Z,3.50
2019-03-16T18:38:04.337Z,3.00
2019-03-16T18:43:06.543Z,5.40
2019-03-16T18:48:08.774Z,3.90
2019-03-16T18:53:13.135Z,3.50
2019-03-16T18:58:15.387Z,26.53
2019-03-16T19:03:17.672Z,3.97
2019-03-16T19:08:20.086Z,15.53
2019-03-16T19:13:22.301Z,9.63
2019-03-16T19:18:24.650Z,11.43
2019-03-16T19:23:26.993Z,4.90
2019-03-16T19:28:29.417Z,23.37
2019-03-16T19:33:32.902Z,16.47
2019-03-16T19:38:35.126Z,12.27
2019-03-16T19:43:37.348Z,10.37
2019-03-16T19:48:39.571Z,6.93
2019-03-16T19:53:41.812Z,7.73
2019-03-16T19:58:44.112Z,11.50
2019-03-16T20:03:46.436Z,12.17
2019-03-16T20:08:48.689Z,14.13
2019-03-16T20:13:51.031Z,14.80
2019-03-16T20:18:53.201Z,7.17
2019-03-16T20:23:55.479Z,5.50
2019-03-16T20:28:57.708Z,6.83
2019-03-16T20:33:59.996Z,8.40
2019-03-16T20:39:02.302Z,7.13
2019-03-16T20:44:04.800Z,7.83
2019-03-16T20:49:07.308Z,10.93
2019-03-16T20:54:09.530Z,10.73
2019-03-16T20:59:11.732Z,10.80
2019-03-16T21:04:13.982Z,8.37
2019-03-16T21:09:16.211Z,6.23
2019-03-16T21:14:19.495Z,8.27
2019-03-16T21:19:21.869Z,8.03
2019-03-16T21:24:24.168Z,13.70
2019-03-16T21:29:26.560Z,13.33
2019-03-16T21:34:28.771Z,10.77
2019-03-16T21:39:31.119Z,10.83
2019-03-16T21:44:33.382Z,10.03
2019-03-16T21:49:35.601Z,9.53
2019-03-16T21:54:38.091Z,11.23
2019-03-16T21:59:40.430Z,11.17
2019-03-16T22:04:42.660Z,16.17
2019-03-16T22:09:44.880Z,21.10
2019-03-16T22:14:47.182Z,18.10
2019-03-16T22:19:49.404Z,18.67
2019-03-16T22:24:51.597Z,13.77
2019-03-16T22:29:53.797Z,12.20
2019-03-16T22:34:56.304Z,12.23
2019-03-16T22:39:58.547Z,10.37
2019-03-16T22:45:00.770Z,9.30
2019-03-16T22:50:03.882Z,10.27
2019-03-16T22:55:06.372Z,13.40
2019-03-16T23:00:10.247Z,11.77
2019-03-16T23:05:12.470Z,10.40
2019-03-16T23:10:14.885Z,8.50
2019-03-16T23:15:17.484Z,7.80
2019-03-16T23:20:19.660Z,8.30
2019-03-16T23:25:22.008Z,6.37
2019-03-16T23:30:24.211Z,7.43
2019-03-16T23:35:26.431Z,7.77
2019-03-16T23:40:28.710Z,6.90
2019-03-16T23:45:30.905Z,9.97
2019-03-16T23:50:33.161Z,14.73
2019-03-16T23:55:35.423Z,11.57
